sensor_id;sensor_type;location;lat;lon;timestamp;P1;durP1;ratioP1;P2;durP2;ratioP2
66020;SDS011;52789;59.980;30.346;2022-10-30T00:00:26;3.47;;;1.03;;
66020;SDS011;52789;59.980;30.346;2022-10-30T00:02:52;1.00;;;0.80;;
66020;SDS011;52789;59.980;30.346;2022-10-30T00:05:18;5.37;;;1.00;;
66020;SDS011;52789;59.980;30.346;2022-10-30T00:07:45;1.00;;;0.90;;
66020;SDS011;52789;59.980;30.346;2022-10-30T00:10:12;1.10;;;1.00;;
66020;SDS011;52789;59.980;30.346;2022-10-30T00:12:38;1.00;;;0.90;;
66020;SDS011;52789;59.980;30.346;2022-10-30T00:15:04;2.47;;;1.10;;
66020;SDS011;52789;59.980;30.346;2022-10-30T00:17:30;1.40;;;1.27;;
66020;SDS011;52789;59.980;30.346;2022-10-30T00:19:56;1.50;;;0.93;;
66020;SDS011;52789;59.980;30.346;2022-10-30T00:22:22;1.23;;;1.13;;
66020;SDS011;52789;59.980;30.346;2022-10-30T00:24:48;1.10;;;1.00;;
66020;SDS011;52789;59.980;30.346;2022-10-30T00:27:13;1.77;;;1.00;;
66020;SDS011;52789;59.980;30.346;2022-10-30T00:29:39;1.00;;;0.90;;
66020;SDS011;52789;59.980;30.346;2022-10-30T00:32:04;1.10;;;1.00;;
66020;SDS011;52789;59.980;30.346;2022-10-30T00:34:30;5.50;;;1.30;;
66020;SDS011;52789;59.980;30.346;2022-10-30T00:36:55;1.90;;;0.90;;
66020;SDS011;52789;59.980;30.346;2022-10-30T00:39:21;1.23;;;1.07;;
66020;SDS011;52789;59.980;30.346;2022-10-30T00:41:46;1.37;;;1.00;;
66020;SDS011;52789;59.980;30.346;2022-10-30T00:47:12;1.10;;;1.00;;
66020;SDS011;52789;59.980;30.346;2022-10-30T00:49:46;3.13;;;1.30;;
66020;SDS011;52789;59.980;30.346;2022-10-30T00:52:22;1.23;;;1.13;;
66020;SDS011;52789;59.980;30.346;2022-10-30T00:57:17;1.23;;;1.13;;
66020;SDS011;52789;59.980;30.346;2022-10-30T00:59:43;1.10;;;1.00;;
66020;SDS011;52789;59.980;30.346;2022-10-30T01:02:09;1.87;;;1.10;;
66020;SDS011;52789;59.980;30.346;2022-10-30T01:04:35;2.20;;;0.90;;
66020;SDS011;52789;59.980;30.346;2022-10-30T01:07:05;0.98;;;0.88;;
66020;SDS011;52789;59.980;30.346;2022-10-30T01:09:35;0.80;;;0.80;;
66020;SDS011;52789;59.980;30.346;2022-10-30T01:12:02;1.23;;;1.03;;
66020;SDS011;52789;59.980;30.346;2022-10-30T01:14:28;1.50;;;1.40;;
66020;SDS011;52789;59.980;30.346;2022-10-30T01:19:33;1.33;;;0.87;;
66020;SDS011;52789;59.980;30.346;2022-10-30T01:27:52;1.30;;;0.87;;
66020;SDS011;52789;59.980;30.346;2022-10-30T01:33:06;0.93;;;0.90;;
66020;SDS011;52789;59.980;30.346;2022-10-30T01:36:00;1.30;;;1.10;;
66020;SDS011;52789;59.980;30.346;2022-10-30T01:38:44;1.35;;;1.25;;
66020;SDS011;52789;59.980;30.346;2022-10-30T01:41:14;1.77;;;1.10;;
66020;SDS011;52789;59.980;30.346;2022-10-30T01:43:40;1.50;;;1.40;;
66020;SDS011;52789;59.980;30.346;2022-10-30T01:54:45;1.10;;;1.00;;
66020;SDS011;52789;59.980;30.346;2022-10-30T02:00:11;1.33;;;0.87;;
66020;SDS011;52789;59.980;30.346;2022-10-30T02:05:05;0.90;;;0.80;;
66020;SDS011;52789;59.980;30.346;2022-10-30T02:07:33;1.00;;;1.00;;
66020;SDS011;52789;59.980;30.346;2022-10-30T02:10:03;1.83;;;1.17;;
66020;SDS011;52789;59.980;30.346;2022-10-30T02:12:29;1.37;;;1.27;;
66020;SDS011;52789;59.980;30.346;2022-10-30T02:15:15;0.90;;;0.90;;
66020;SDS011;52789;59.980;30.346;2022-10-30T02:17:41;2.00;;;0.80;;
66020;SDS011;52789;59.980;30.346;2022-10-30T02:20:06;1.57;;;1.00;;
66020;SDS011;52789;59.980;30.346;2022-10-30T02:22:38;1.17;;;1.07;;
66020;SDS011;52789;59.980;30.346;2022-10-30T02:25:03;0.83;;;0.80;;
66020;SDS011;52789;59.980;30.346;2022-10-30T02:27:29;1.27;;;1.17;;
66020;SDS011;52789;59.980;30.346;2022-10-30T02:29:55;0.93;;;0.93;;
66020;SDS011;52789;59.980;30.346;2022-10-30T02:32:20;0.87;;;0.80;;
66020;SDS011;52789;59.980;30.346;2022-10-30T02:34:46;1.10;;;0.97;;
66020;SDS011;52789;59.980;30.346;2022-10-30T02:37:11;4.17;;;1.13;;
66020;SDS011;52789;59.980;30.346;2022-10-30T02:39:37;1.57;;;1.20;;
66020;SDS011;52789;59.980;30.346;2022-10-30T02:42:02;2.43;;;1.20;;
66020;SDS011;52789;59.980;30.346;2022-10-30T02:44:29;1.13;;;0.90;;
66020;SDS011;52789;59.980;30.346;2022-10-30T02:46:56;2.03;;;0.93;;
66020;SDS011;52789;59.980;30.346;2022-10-30T02:49:22;1.50;;;0.80;;
66020;SDS011;52789;59.980;30.346;2022-10-30T02:51:47;1.57;;;1.33;;
66020;SDS011;52789;59.980;30.346;2022-10-30T02:54:13;1.50;;;1.40;;
66020;SDS011;52789;59.980;30.346;2022-10-30T02:56:39;1.03;;;1.00;;
66020;SDS011;52789;59.980;30.346;2022-10-30T02:59:04;0.90;;;0.90;;
66020;SDS011;52789;59.980;30.346;2022-10-30T03:01:30;1.30;;;0.90;;
66020;SDS011;52789;59.980;30.346;2022-10-30T03:03:56;0.97;;;0.97;;
66020;SDS011;52789;59.980;30.346;2022-10-30T03:06:21;1.53;;;1.00;;
66020;SDS011;52789;59.980;30.346;2022-10-30T03:08:47;0.90;;;0.83;;
66020;SDS011;52789;59.980;30.346;2022-10-30T03:11:14;1.27;;;0.83;;
66020;SDS011;52789;59.980;30.346;2022-10-30T03:13:43;1.30;;;1.00;;
66020;SDS011;52789;59.980;30.346;2022-10-30T03:16:10;1.10;;;1.00;;
66020;SDS011;52789;59.980;30.346;2022-10-30T03:18:37;1.83;;;1.48;;
66020;SDS011;52789;59.980;30.346;2022-10-30T03:21:04;1.10;;;1.00;;
66020;SDS011;52789;59.980;30.346;2022-10-30T03:23:31;2.73;;;1.17;;
66020;SDS011;52789;59.980;30.346;2022-10-30T03:25:57;2.30;;;1.30;;
66020;SDS011;52789;59.980;30.346;2022-10-30T03:28:24;1.33;;;0.90;;
66020;SDS011;52789;59.980;30.346;2022-10-30T03:30:56;1.75;;;0.95;;
66020;SDS011;52789;59.980;30.346;2022-10-30T03:33:22;1.43;;;1.00;;
66020;SDS011;52789;59.980;30.346;2022-10-30T03:35:48;1.43;;;1.00;;
66020;SDS011;52789;59.980;30.346;2022-10-30T03:38:13;1.87;;;1.37;;
66020;SDS011;52789;59.980;30.346;2022-10-30T03:40:39;2.00;;;0.87;;
66020;SDS011;52789;59.980;30.346;2022-10-30T03:43:05;3.47;;;1.17;;
66020;SDS011;52789;59.980;30.346;2022-10-30T03:45:31;2.63;;;1.13;;
66020;SDS011;52789;59.980;30.346;2022-10-30T03:48:03;1.30;;;1.20;;
66020;SDS011;52789;59.980;30.346;2022-10-30T03:50:29;0.87;;;0.87;;
66020;SDS011;52789;59.980;30.346;2022-10-30T03:52:55;4.10;;;1.17;;
66020;SDS011;52789;59.980;30.346;2022-10-30T03:55:21;1.70;;;1.20;;
66020;SDS011;52789;59.980;30.346;2022-10-30T03:57:48;1.50;;;1.23;;
66020;SDS011;52789;59.980;30.346;2022-10-30T04:00:13;2.03;;;1.60;;
66020;SDS011;52789;59.980;30.346;2022-10-30T04:02:49;2.53;;;1.10;;
66020;SDS011;52789;59.980;30.346;2022-10-30T04:05:16;1.77;;;0.80;;
66020;SDS011;52789;59.980;30.346;2022-10-30T04:07:45;2.63;;;1.03;;
66020;SDS011;52789;59.980;30.346;2022-10-30T04:10:13;1.47;;;1.00;;
66020;SDS011;52789;59.980;30.346;2022-10-30T04:12:39;3.13;;;1.33;;
66020;SDS011;52789;59.980;30.346;2022-10-30T04:15:05;3.23;;;1.43;;
66020;SDS011;52789;59.980;30.346;2022-10-30T04:17:32;2.13;;;1.43;;
66020;SDS011;52789;59.980;30.346;2022-10-30T04:19:58;3.00;;;1.67;;
66020;SDS011;52789;59.980;30.346;2022-10-30T04:22:23;1.87;;;1.30;;
66020;SDS011;52789;59.980;30.346;2022-10-30T04:24:49;1.37;;;1.27;;
66020;SDS011;52789;59.980;30.346;2022-10-30T04:27:14;2.83;;;1.33;;
66020;SDS011;52789;59.980;30.346;2022-10-30T04:29:40;3.33;;;1.33;;
66020;SDS011;52789;59.980;30.346;2022-10-30T04:32:08;1.85;;;1.17;;
66020;SDS011;52789;59.980;30.346;2022-10-30T04:34:34;2.63;;;1.60;;
66020;SDS011;52789;59.980;30.346;2022-10-30T04:37:00;2.80;;;1.23;;
66020;SDS011;52789;59.980;30.346;2022-10-30T04:39:26;2.30;;;1.10;;
66020;SDS011;52789;59.980;30.346;2022-10-30T04:41:51;1.80;;;1.03;;
66020;SDS011;52789;59.980;30.346;2022-10-30T04:44:17;2.03;;;1.10;;
66020;SDS011;52789;59.980;30.346;2022-10-30T04:46:42;3.43;;;1.37;;
66020;SDS011;52789;59.980;30.346;2022-10-30T04:49:08;1.53;;;1.30;;
66020;SDS011;52789;59.980;30.346;2022-10-30T04:51:34;2.20;;;1.10;;
66020;SDS011;52789;59.980;30.346;2022-10-30T04:53:59;3.70;;;1.23;;
66020;SDS011;52789;59.980;30.346;2022-10-30T04:56:25;3.00;;;1.03;;
66020;SDS011;52789;59.980;30.346;2022-10-30T04:58:51;1.20;;;1.10;;
66020;SDS011;52789;59.980;30.346;2022-10-30T05:01:17;1.67;;;1.40;;
66020;SDS011;52789;59.980;30.346;2022-10-30T05:03:43;1.93;;;1.40;;
66020;SDS011;52789;59.980;30.346;2022-10-30T05:06:21;3.37;;;1.10;;
66020;SDS011;52789;59.980;30.346;2022-10-30T05:08:49;1.47;;;1.37;;
66020;SDS011;52789;59.980;30.346;2022-10-30T05:11:15;2.27;;;1.60;;
66020;SDS011;52789;59.980;30.346;2022-10-30T05:13:42;1.30;;;1.20;;
66020;SDS011;52789;59.980;30.346;2022-10-30T05:16:07;1.87;;;1.23;;
66020;SDS011;52789;59.980;30.346;2022-10-30T05:18:33;2.20;;;1.57;;
66020;SDS011;52789;59.980;30.346;2022-10-30T05:20:58;4.10;;;1.33;;
66020;SDS011;52789;59.980;30.346;2022-10-30T05:23:24;1.90;;;1.07;;
66020;SDS011;52789;59.980;30.346;2022-10-30T05:25:49;3.67;;;1.20;;
66020;SDS011;52789;59.980;30.346;2022-10-30T05:28:15;2.10;;;1.73;;
66020;SDS011;52789;59.980;30.346;2022-10-30T05:30:40;2.00;;;1.80;;
66020;SDS011;52789;59.980;30.346;2022-10-30T05:33:06;3.80;;;1.73;;
66020;SDS011;52789;59.980;30.346;2022-10-30T05:35:35;1.63;;;1.00;;
66020;SDS011;52789;59.980;30.346;2022-10-30T05:38:01;1.80;;;1.10;;
66020;SDS011;52789;59.980;30.346;2022-10-30T05:40:31;2.57;;;1.50;;
66020;SDS011;52789;59.980;30.346;2022-10-30T05:42:58;1.57;;;0.90;;
66020;SDS011;52789;59.980;30.346;2022-10-30T05:45:24;2.90;;;1.23;;
66020;SDS011;52789;59.980;30.346;2022-10-30T05:47:59;1.53;;;1.10;;
66020;SDS011;52789;59.980;30.346;2022-10-30T05:50:27;4.60;;;1.30;;
66020;SDS011;52789;59.980;30.346;2022-10-30T05:52:58;1.50;;;1.40;;
66020;SDS011;52789;59.980;30.346;2022-10-30T05:55:24;1.50;;;1.30;;
66020;SDS011;52789;59.980;30.346;2022-10-30T05:57:57;4.53;;;1.80;;
66020;SDS011;52789;59.980;30.346;2022-10-30T06:00:30;3.93;;;1.70;;
66020;SDS011;52789;59.980;30.346;2022-10-30T06:06:01;1.07;;;0.97;;
66020;SDS011;52789;59.980;30.346;2022-10-30T06:08:31;5.77;;;2.10;;
66020;SDS011;52789;59.980;30.346;2022-10-30T06:11:08;2.90;;;1.20;;
66020;SDS011;52789;59.980;30.346;2022-10-30T06:13:33;2.93;;;1.30;;
66020;SDS011;52789;59.980;30.346;2022-10-30T06:15:59;1.90;;;1.23;;
66020;SDS011;52789;59.980;30.346;2022-10-30T06:18:24;1.97;;;0.97;;
66020;SDS011;52789;59.980;30.346;2022-10-30T06:20:50;2.30;;;1.40;;
66020;SDS011;52789;59.980;30.346;2022-10-30T06:23:15;2.57;;;1.50;;
66020;SDS011;52789;59.980;30.346;2022-10-30T06:25:41;1.80;;;1.33;;
66020;SDS011;52789;59.980;30.346;2022-10-30T06:28:06;2.80;;;1.87;;
66020;SDS011;52789;59.980;30.346;2022-10-30T06:30:34;4.47;;;2.77;;
66020;SDS011;52789;59.980;30.346;2022-10-30T06:33:00;3.80;;;1.50;;
66020;SDS011;52789;59.980;30.346;2022-10-30T06:35:27;1.20;;;1.03;;
66020;SDS011;52789;59.980;30.346;2022-10-30T06:37:53;3.57;;;1.27;;
66020;SDS011;52789;59.980;30.346;2022-10-30T06:40:21;1.47;;;1.20;;
66020;SDS011;52789;59.980;30.346;2022-10-30T06:42:50;3.93;;;1.30;;
66020;SDS011;52789;59.980;30.346;2022-10-30T06:45:17;2.87;;;2.57;;
66020;SDS011;52789;59.980;30.346;2022-10-30T06:47:44;1.80;;;1.50;;
66020;SDS011;52789;59.980;30.346;2022-10-30T06:50:11;1.20;;;1.10;;
66020;SDS011;52789;59.980;30.346;2022-10-30T06:52:38;3.55;;;2.10;;
66020;SDS011;52789;59.980;30.346;2022-10-30T06:55:04;1.73;;;1.30;;
66020;SDS011;52789;59.980;30.346;2022-10-30T06:57:31;1.83;;;1.10;;
66020;SDS011;52789;59.980;30.346;2022-10-30T06:59:57;1.60;;;1.30;;
66020;SDS011;52789;59.980;30.346;2022-10-30T07:02:22;1.27;;;1.17;;
66020;SDS011;52789;59.980;30.346;2022-10-30T07:04:48;1.87;;;1.77;;
66020;SDS011;52789;59.980;30.346;2022-10-30T07:07:14;2.43;;;1.30;;
66020;SDS011;52789;59.980;30.346;2022-10-30T07:09:40;1.30;;;1.20;;
66020;SDS011;52789;59.980;30.346;2022-10-30T07:12:07;2.47;;;1.30;;
66020;SDS011;52789;59.980;30.346;2022-10-30T07:14:33;3.10;;;1.40;;
66020;SDS011;52789;59.980;30.346;2022-10-30T07:16:59;1.30;;;1.20;;
66020;SDS011;52789;59.980;30.346;2022-10-30T07:19:24;2.30;;;1.50;;
66020;SDS011;52789;59.980;30.346;2022-10-30T07:21:50;4.20;;;1.83;;
66020;SDS011;52789;59.980;30.346;2022-10-30T07:24:15;4.10;;;1.37;;
66020;SDS011;52789;59.980;30.346;2022-10-30T07:26:41;4.20;;;1.10;;
66020;SDS011;52789;59.980;30.346;2022-10-30T07:29:07;3.67;;;1.50;;
66020;SDS011;52789;59.980;30.346;2022-10-30T07:31:32;2.30;;;1.73;;
66020;SDS011;52789;59.980;30.346;2022-10-30T07:33:58;1.70;;;1.20;;
66020;SDS011;52789;59.980;30.346;2022-10-30T07:36:23;1.30;;;1.17;;
66020;SDS011;52789;59.980;30.346;2022-10-30T07:38:49;4.57;;;1.47;;
66020;SDS011;52789;59.980;30.346;2022-10-30T07:41:19;2.20;;;1.40;;
66020;SDS011;52789;59.980;30.346;2022-10-30T07:43:45;1.40;;;1.10;;
66020;SDS011;52789;59.980;30.346;2022-10-30T07:46:11;3.63;;;1.53;;
66020;SDS011;52789;59.980;30.346;2022-10-30T07:48:38;4.57;;;1.80;;
66020;SDS011;52789;59.980;30.346;2022-10-30T07:51:04;3.13;;;1.20;;
66020;SDS011;52789;59.980;30.346;2022-10-30T07:53:30;2.60;;;1.27;;
66020;SDS011;52789;59.980;30.346;2022-10-30T07:55:55;2.27;;;1.10;;
66020;SDS011;52789;59.980;30.346;2022-10-30T07:58:21;3.03;;;1.77;;
66020;SDS011;52789;59.980;30.346;2022-10-30T08:00:47;1.50;;;1.40;;
66020;SDS011;52789;59.980;30.346;2022-10-30T08:03:12;2.40;;;1.57;;
66020;SDS011;52789;59.980;30.346;2022-10-30T08:05:41;1.40;;;1.30;;
66020;SDS011;52789;59.980;30.346;2022-10-30T08:08:10;2.70;;;1.37;;
66020;SDS011;52789;59.980;30.346;2022-10-30T08:10:35;3.13;;;1.47;;
66020;SDS011;52789;59.980;30.346;2022-10-30T08:13:02;7.90;;;3.10;;
66020;SDS011;52789;59.980;30.346;2022-10-30T08:15:28;1.77;;;1.40;;
66020;SDS011;52789;59.980;30.346;2022-10-30T08:17:54;3.40;;;2.10;;
66020;SDS011;52789;59.980;30.346;2022-10-30T08:20:26;3.53;;;1.97;;
66020;SDS011;52789;59.980;30.346;2022-10-30T08:22:56;6.53;;;1.60;;
66020;SDS011;52789;59.980;30.346;2022-10-30T08:25:23;7.13;;;2.90;;
66020;SDS011;52789;59.980;30.346;2022-10-30T08:27:59;4.30;;;2.10;;
66020;SDS011;52789;59.980;30.346;2022-10-30T08:30:28;1.40;;;1.00;;
66020;SDS011;52789;59.980;30.346;2022-10-30T08:32:58;1.93;;;1.60;;
66020;SDS011;52789;59.980;30.346;2022-10-30T08:35:31;3.00;;;1.57;;
66020;SDS011;52789;59.980;30.346;2022-10-30T08:37:59;1.50;;;1.30;;
66020;SDS011;52789;59.980;30.346;2022-10-30T08:40:27;1.73;;;1.63;;
66020;SDS011;52789;59.980;30.346;2022-10-30T08:42:53;2.00;;;1.20;;
66020;SDS011;52789;59.980;30.346;2022-10-30T08:45:20;2.93;;;1.20;;
66020;SDS011;52789;59.980;30.346;2022-10-30T08:47:46;4.23;;;1.40;;
66020;SDS011;52789;59.980;30.346;2022-10-30T08:50:13;3.07;;;1.27;;
66020;SDS011;52789;59.980;30.346;2022-10-30T08:52:44;1.53;;;1.17;;
66020;SDS011;52789;59.980;30.346;2022-10-30T08:55:09;1.43;;;1.27;;
66020;SDS011;52789;59.980;30.346;2022-10-30T08:57:35;3.70;;;1.50;;
66020;SDS011;52789;59.980;30.346;2022-10-30T09:00:02;1.80;;;1.10;;
66020;SDS011;52789;59.980;30.346;2022-10-30T09:02:29;1.38;;;1.20;;
66020;SDS011;52789;59.980;30.346;2022-10-30T09:04:55;1.40;;;1.30;;
66020;SDS011;52789;59.980;30.346;2022-10-30T09:07:20;1.40;;;1.27;;
66020;SDS011;52789;59.980;30.346;2022-10-30T09:09:46;4.97;;;2.20;;
66020;SDS011;52789;59.980;30.346;2022-10-30T09:12:13;1.20;;;1.10;;
66020;SDS011;52789;59.980;30.346;2022-10-30T09:14:40;3.00;;;1.53;;
66020;SDS011;52789;59.980;30.346;2022-10-30T09:17:05;1.10;;;0.97;;
66020;SDS011;52789;59.980;30.346;2022-10-30T09:19:31;2.40;;;1.33;;
66020;SDS011;52789;59.980;30.346;2022-10-30T09:21:56;2.03;;;1.03;;
66020;SDS011;52789;59.980;30.346;2022-10-30T09:24:22;2.03;;;1.67;;
66020;SDS011;52789;59.980;30.346;2022-10-30T09:26:47;3.10;;;1.70;;
66020;SDS011;52789;59.980;30.346;2022-10-30T09:29:13;5.37;;;1.53;;
66020;SDS011;52789;59.980;30.346;2022-10-30T09:31:38;2.30;;;1.10;;
66020;SDS011;52789;59.980;30.346;2022-10-30T09:34:04;1.33;;;1.20;;
66020;SDS011;52789;59.980;30.346;2022-10-30T09:36:29;2.17;;;1.10;;
66020;SDS011;52789;59.980;30.346;2022-10-30T09:38:57;1.63;;;1.20;;
66020;SDS011;52789;59.980;30.346;2022-10-30T09:47:17;4.30;;;1.13;;
66020;SDS011;52789;59.980;30.346;2022-10-30T09:50:30;3.13;;;1.60;;
66020;SDS011;52789;59.980;30.346;2022-10-30T09:53:13;3.27;;;1.43;;
66020;SDS011;52789;59.980;30.346;2022-10-30T09:55:50;2.40;;;1.20;;
66020;SDS011;52789;59.980;30.346;2022-10-30T09:58:37;3.47;;;1.17;;
66020;SDS011;52789;59.980;30.346;2022-10-30T10:01:37;2.47;;;1.20;;
66020;SDS011;52789;59.980;30.346;2022-10-30T10:04:25;4.77;;;1.40;;
66020;SDS011;52789;59.980;30.346;2022-10-30T10:06:59;2.20;;;1.07;;
66020;SDS011;52789;59.980;30.346;2022-10-30T10:09:32;3.33;;;1.17;;
66020;SDS011;52789;59.980;30.346;2022-10-30T10:12:04;1.80;;;1.13;;
66020;SDS011;52789;59.980;30.346;2022-10-30T10:14:50;1.30;;;1.20;;
66020;SDS011;52789;59.980;30.346;2022-10-30T10:17:52;3.63;;;1.23;;
66020;SDS011;52789;59.980;30.346;2022-10-30T10:22:49;4.53;;;2.70;;
66020;SDS011;52789;59.980;30.346;2022-10-30T10:25:16;2.17;;;1.97;;
66020;SDS011;52789;59.980;30.346;2022-10-30T10:30:17;4.67;;;3.03;;
66020;SDS011;52789;59.980;30.346;2022-10-30T10:51:58;3.10;;;1.03;;
66020;SDS011;52789;59.980;30.346;2022-10-30T10:54:58;2.73;;;0.93;;
66020;SDS011;52789;59.980;30.346;2022-10-30T10:57:32;0.93;;;0.90;;
66020;SDS011;52789;59.980;30.346;2022-10-30T11:00:06;2.43;;;1.67;;
66020;SDS011;52789;59.980;30.346;2022-10-30T11:02:42;3.47;;;0.97;;
66020;SDS011;52789;59.980;30.346;2022-10-30T11:07:47;4.10;;;1.00;;
66020;SDS011;52789;59.980;30.346;2022-10-30T11:10:15;2.88;;;1.13;;
66020;SDS011;52789;59.980;30.346;2022-10-30T11:12:45;3.77;;;1.30;;
66020;SDS011;52789;59.980;30.346;2022-10-30T11:15:20;1.43;;;1.03;;
66020;SDS011;52789;59.980;30.346;2022-10-30T11:18:06;4.87;;;1.40;;
66020;SDS011;52789;59.980;30.346;2022-10-30T11:23:29;2.53;;;1.50;;
66020;SDS011;52789;59.980;30.346;2022-10-30T11:25:58;2.03;;;1.10;;
66020;SDS011;52789;59.980;30.346;2022-10-30T11:28:35;1.43;;;1.33;;
66020;SDS011;52789;59.980;30.346;2022-10-30T11:31:16;4.60;;;1.37;;
66020;SDS011;52789;59.980;30.346;2022-10-30T11:33:48;2.13;;;1.27;;
66020;SDS011;52789;59.980;30.346;2022-10-30T11:36:15;2.93;;;1.20;;
66020;SDS011;52789;59.980;30.346;2022-10-30T11:38:43;2.90;;;1.00;;
66020;SDS011;52789;59.980;30.346;2022-10-30T11:41:09;6.13;;;1.60;;
66020;SDS011;52789;59.980;30.346;2022-10-30T11:43:35;4.63;;;1.60;;
66020;SDS011;52789;59.980;30.346;2022-10-30T11:46:05;1.70;;;1.33;;
66020;SDS011;52789;59.980;30.346;2022-10-30T11:48:38;1.97;;;1.27;;
66020;SDS011;52789;59.980;30.346;2022-10-30T11:51:07;2.80;;;1.07;;
66020;SDS011;52789;59.980;30.346;2022-10-30T11:53:35;3.07;;;1.00;;
66020;SDS011;52789;59.980;30.346;2022-10-30T11:56:15;1.30;;;1.10;;
66020;SDS011;52789;59.980;30.346;2022-10-30T11:58:46;0.80;;;0.80;;
66020;SDS011;52789;59.980;30.346;2022-10-30T12:01:30;2.87;;;1.20;;
66020;SDS011;52789;59.980;30.346;2022-10-30T12:04:22;3.10;;;1.23;;
66020;SDS011;52789;59.980;30.346;2022-10-30T12:06:49;1.33;;;1.13;;
66020;SDS011;52789;59.980;30.346;2022-10-30T12:09:30;2.47;;;1.33;;
66020;SDS011;52789;59.980;30.346;2022-10-30T12:11:58;1.77;;;1.43;;
66020;SDS011;52789;59.980;30.346;2022-10-30T12:14:25;9.67;;;3.93;;
66020;SDS011;52789;59.980;30.346;2022-10-30T12:16:52;2.23;;;1.43;;
66020;SDS011;52789;59.980;30.346;2022-10-30T12:19:20;4.85;;;2.15;;
66020;SDS011;52789;59.980;30.346;2022-10-30T12:21:48;1.33;;;1.23;;
66020;SDS011;52789;59.980;30.346;2022-10-30T12:26:53;1.57;;;1.10;;
66020;SDS011;52789;59.980;30.346;2022-10-30T12:29:21;1.77;;;1.53;;
66020;SDS011;52789;59.980;30.346;2022-10-30T12:31:56;1.57;;;1.33;;
66020;SDS011;52789;59.980;30.346;2022-10-30T12:34:30;2.43;;;1.53;;
66020;SDS011;52789;59.980;30.346;2022-10-30T12:37:25;1.10;;;1.07;;
66020;SDS011;52789;59.980;30.346;2022-10-30T12:43:27;2.10;;;1.90;;
66020;SDS011;52789;59.980;30.346;2022-10-30T12:45:44;2.97;;;1.40;;
66020;SDS011;52789;59.980;30.346;2022-10-30T12:53:37;3.03;;;1.73;;
66020;SDS011;52789;59.980;30.346;2022-10-30T12:56:26;4.20;;;1.70;;
66020;SDS011;52789;59.980;30.346;2022-10-30T12:58:58;2.03;;;1.43;;
66020;SDS011;52789;59.980;30.346;2022-10-30T13:01:43;4.17;;;1.13;;
66020;SDS011;52789;59.980;30.346;2022-10-30T13:04:18;1.93;;;1.37;;
66020;SDS011;52789;59.980;30.346;2022-10-30T13:06:50;1.30;;;1.20;;
66020;SDS011;52789;59.980;30.346;2022-10-30T13:12:22;2.43;;;2.17;;
66020;SDS011;52789;59.980;30.346;2022-10-30T13:14:54;2.78;;;1.75;;
66020;SDS011;52789;59.980;30.346;2022-10-30T13:17:23;3.50;;;2.00;;
66020;SDS011;52789;59.980;30.346;2022-10-30T13:19:48;2.77;;;1.47;;
66020;SDS011;52789;59.980;30.346;2022-10-30T13:27:55;1.53;;;1.30;;
66020;SDS011;52789;59.980;30.346;2022-10-30T13:30:30;1.37;;;1.27;;
66020;SDS011;52789;59.980;30.346;2022-10-30T13:40:45;8.27;;;4.63;;
66020;SDS011;52789;59.980;30.346;2022-10-30T13:46:23;3.85;;;1.77;;
66020;SDS011;52789;59.980;30.346;2022-10-30T13:49:17;2.00;;;1.40;;
66020;SDS011;52789;59.980;30.346;2022-10-30T13:54:30;2.93;;;1.40;;
66020;SDS011;52789;59.980;30.346;2022-10-30T13:57:10;1.60;;;1.40;;
66020;SDS011;52789;59.980;30.346;2022-10-30T14:02:33;3.33;;;1.50;;
66020;SDS011;52789;59.980;30.346;2022-10-30T14:05:29;1.40;;;1.30;;
66020;SDS011;52789;59.980;30.346;2022-10-30T14:10:52;5.53;;;1.27;;
66020;SDS011;52789;59.980;30.346;2022-10-30T14:13:21;4.10;;;1.70;;
66020;SDS011;52789;59.980;30.346;2022-10-30T14:18:33;1.73;;;1.30;;
66020;SDS011;52789;59.980;30.346;2022-10-30T14:24:04;5.93;;;2.77;;
66020;SDS011;52789;59.980;30.346;2022-10-30T14:26:44;9.55;;;3.67;;
66020;SDS011;52789;59.980;30.346;2022-10-30T14:29:29;8.03;;;5.10;;
66020;SDS011;52789;59.980;30.346;2022-10-30T14:32:01;2.42;;;1.40;;
66020;SDS011;52789;59.980;30.346;2022-10-30T14:37:17;4.22;;;1.38;;
66020;SDS011;52789;59.980;30.346;2022-10-30T14:43:02;14.48;;;3.78;;
66020;SDS011;52789;59.980;30.346;2022-10-30T14:45:43;1.63;;;1.30;;
66020;SDS011;52789;59.980;30.346;2022-10-30T14:50:56;7.47;;;2.33;;
66020;SDS011;52789;59.980;30.346;2022-10-30T14:53:46;2.00;;;1.50;;
66020;SDS011;52789;59.980;30.346;2022-10-30T14:56:48;7.97;;;1.40;;
66020;SDS011;52789;59.980;30.346;2022-10-30T15:01:47;3.17;;;1.87;;
66020;SDS011;52789;59.980;30.346;2022-10-30T15:04:23;4.97;;;2.20;;
66020;SDS011;52789;59.980;30.346;2022-10-30T15:07:01;4.13;;;2.00;;
66020;SDS011;52789;59.980;30.346;2022-10-30T15:09:39;2.60;;;2.00;;
66020;SDS011;52789;59.980;30.346;2022-10-30T15:12:38;2.05;;;1.40;;
66020;SDS011;52789;59.980;30.346;2022-10-30T15:15:18;1.23;;;1.13;;
66020;SDS011;52789;59.980;30.346;2022-10-30T15:17:47;1.23;;;1.13;;
66020;SDS011;52789;59.980;30.346;2022-10-30T15:20:19;3.40;;;1.47;;
66020;SDS011;52789;59.980;30.346;2022-10-30T15:22:48;6.43;;;2.10;;
66020;SDS011;52789;59.980;30.346;2022-10-30T15:25:18;10.30;;;2.27;;
66020;SDS011;52789;59.980;30.346;2022-10-30T15:27:47;2.08;;;1.23;;
66020;SDS011;52789;59.980;30.346;2022-10-30T15:30:20;6.70;;;3.60;;
66020;SDS011;52789;59.980;30.346;2022-10-30T15:32:47;2.95;;;2.03;;
66020;SDS011;52789;59.980;30.346;2022-10-30T15:35:15;2.43;;;1.83;;
66020;SDS011;52789;59.980;30.346;2022-10-30T15:37:58;2.55;;;1.70;;
66020;SDS011;52789;59.980;30.346;2022-10-30T15:40:26;3.17;;;1.33;;
66020;SDS011;52789;59.980;30.346;2022-10-30T15:42:52;1.53;;;1.13;;
66020;SDS011;52789;59.980;30.346;2022-10-30T15:45:22;1.73;;;1.50;;
66020;SDS011;52789;59.980;30.346;2022-10-30T15:48:34;1.67;;;1.50;;
66020;SDS011;52789;59.980;30.346;2022-10-30T15:50:57;3.08;;;1.50;;
66020;SDS011;52789;59.980;30.346;2022-10-30T15:53:36;2.43;;;1.30;;
66020;SDS011;52789;59.980;30.346;2022-10-30T15:56:54;2.33;;;1.37;;
66020;SDS011;52789;59.980;30.346;2022-10-30T15:59:12;3.27;;;1.50;;
66020;SDS011;52789;59.980;30.346;2022-10-30T16:01:44;4.07;;;1.50;;
66020;SDS011;52789;59.980;30.346;2022-10-30T16:06:46;3.23;;;1.27;;
66020;SDS011;52789;59.980;30.346;2022-10-30T16:09:17;3.03;;;1.40;;
66020;SDS011;52789;59.980;30.346;2022-10-30T16:11:43;4.57;;;1.83;;
66020;SDS011;52789;59.980;30.346;2022-10-30T16:14:16;4.77;;;3.30;;
66020;SDS011;52789;59.980;30.346;2022-10-30T16:16:46;14.00;;;5.93;;
66020;SDS011;52789;59.980;30.346;2022-10-30T16:19:19;53.90;;;21.50;;
66020;SDS011;52789;59.980;30.346;2022-10-30T16:21:49;25.50;;;11.90;;
66020;SDS011;52789;59.980;30.346;2022-10-30T16:24:15;22.30;;;9.87;;
66020;SDS011;52789;59.980;30.346;2022-10-30T16:26:42;18.27;;;8.67;;
66020;SDS011;52789;59.980;30.346;2022-10-30T16:31:45;4.33;;;3.20;;
66020;SDS011;52789;59.980;30.346;2022-10-30T16:34:19;18.00;;;9.10;;
66020;SDS011;52789;59.980;30.346;2022-10-30T16:36:49;4.63;;;2.30;;
66020;SDS011;52789;59.980;30.346;2022-10-30T16:39:15;48.47;;;23.57;;
66020;SDS011;52789;59.980;30.346;2022-10-30T16:41:43;33.97;;;16.80;;
66020;SDS011;52789;59.980;30.346;2022-10-30T16:44:12;30.33;;;16.77;;
66020;SDS011;52789;59.980;30.346;2022-10-30T16:46:47;3.57;;;2.80;;
66020;SDS011;52789;59.980;30.346;2022-10-30T16:49:32;4.83;;;3.47;;
66020;SDS011;52789;59.980;30.346;2022-10-30T16:52:01;3.83;;;1.87;;
66020;SDS011;52789;59.980;30.346;2022-10-30T16:54:30;2.83;;;1.73;;
66020;SDS011;52789;59.980;30.346;2022-10-30T16:57:00;2.23;;;1.63;;
66020;SDS011;52789;59.980;30.346;2022-10-30T16:59:32;2.55;;;1.83;;